Time;durP1;ratioP1;P1;durP2;ratioP2;P2;SDS_P1;SDS_P2;PMS_P1;PMS_P2;Temp;Humidity;BMP_temperature;BMP_pressure;BME280_temperature;BME280_humidity;BME280_pressure;Samples;Min_cycle;Max_cycle;Signal;HPM_P1;HPM_P2
2023/07/05 00:01:11;;;;;;;10.85;4.93;;;20.90;99.90;;;;;;5053733;28;20048;-78
2023/07/05 00:04:15;;;;;;;9.27;4.22;;;20.90;99.90;;;;;;5053398;28;20044;-78
2023/07/05 00:07:19;;;;;;;8.60;4.55;;;20.90;99.90;;;;;;5053593;28;20056;-77
2023/07/05 00:10:23;;;;;;;9.90;4.88;;;21.00;99.90;;;;;;5053553;28;20502;-77
2023/07/05 00:13:27;;;;;;;10.10;4.50;;;21.00;99.90;;;;;;5053343;28;20044;-76
2023/07/05 00:16:32;;;;;;;10.23;4.60;;;20.90;99.90;;;;;;5053701;28;20391;-76
2023/07/05 00:19:36;;;;;;;11.07;4.20;;;21.00;99.90;;;;;;5053555;28;20060;-77
2023/07/05 00:22:41;;;;;;;10.30;4.70;;;21.00;99.90;;;;;;5052888;28;20043;-76
2023/07/05 00:25:45;;;;;;;12.40;4.15;;;21.00;99.90;;;;;;5053652;28;20648;-77
2023/07/05 00:28:49;;;;;;;9.65;4.30;;;21.00;99.90;;;;;;5053095;28;20055;-77
2023/07/05 00:31:54;;;;;;;6.50;4.25;;;20.90;99.90;;;;;;5052619;28;20254;-76
2023/07/05 00:34:58;;;;;;;9.45;4.93;;;20.90;99.90;;;;;;5041381;28;20048;-76
2023/07/05 00:38:02;;;;;;;10.30;4.65;;;20.80;99.90;;;;;;5052954;28;20048;-77
2023/07/05 00:41:06;;;;;;;13.05;4.93;;;20.80;99.90;;;;;;5053156;28;20052;-77
2023/07/05 00:44:13;;;;;;;11.68;4.90;;;20.80;99.90;;;;;;5052807;28;20051;-76
2023/07/05 00:47:31;;;;;;;9.70;5.25;;;20.70;99.90;;;;;;5040154;28;20056;-76
2023/07/05 00:50:40;;;;;;;11.88;5.05;;;20.80;99.90;;;;;;5040644;28;20044;-76
2023/07/05 00:53:44;;;;;;;9.70;5.15;;;20.70;99.90;;;;;;5052747;28;20412;-77
2023/07/05 00:56:55;;;;;;;12.70;5.10;;;20.70;99.90;;;;;;5052806;28;20051;-77
2023/07/05 01:00:11;;;;;;;10.23;5.13;;;20.70;99.90;;;;;;5040002;28;20048;-77
2023/07/05 01:03:21;;;;;;;9.80;5.05;;;20.70;99.90;;;;;;5039938;28;20394;-76
2023/07/05 01:06:25;;;;;;;7.57;4.85;;;20.60;99.90;;;;;;5052799;28;20494;-77
2023/07/05 01:09:31;;;;;;;11.43;4.65;;;20.40;99.90;;;;;;5040198;28;20040;-77
2023/07/05 01:12:47;;;;;;;13.05;5.75;;;20.40;99.90;;;;;;5039894;28;20043;-75
2023/07/05 01:16:03;;;;;;;10.15;5.10;;;20.30;99.90;;;;;;5052453;28;20056;-76
2023/07/05 01:19:26;;;;;;;10.57;4.57;;;20.30;99.90;;;;;;5052181;28;20502;-75
2023/07/05 01:23:15;;;;;;;10.40;5.13;;;20.30;99.90;;;;;;5051865;28;20052;-77
2023/07/05 01:26:39;;;;;;;13.13;5.28;;;20.30;99.90;;;;;;5039776;28;20052;-77
2023/07/05 01:29:56;;;;;;;9.50;5.28;;;20.30;99.90;;;;;;5051910;28;20056;-77
2023/07/05 01:33:13;;;;;;;10.00;4.90;;;20.10;99.90;;;;;;5051504;28;20510;-77
2023/07/05 01:36:19;;;;;;;12.30;5.07;;;20.00;99.90;;;;;;5039464;28;20479;-77
2023/07/05 01:39:24;;;;;;;10.52;5.47;;;19.90;99.90;;;;;;5051713;28;20052;-77
2023/07/05 01:42:33;;;;;;;11.02;5.53;;;19.50;99.90;;;;;;5050912;28;20052;-77
2023/07/05 01:45:52;;;;;;;10.05;5.63;;;19.50;99.90;;;;;;5051726;28;20064;-77
2023/07/05 01:49:18;;;;;;;12.48;5.93;;;19.50;99.90;;;;;;5051856;28;20052;-77
2023/07/05 01:52:51;;;;;;;11.00;5.85;;;19.50;99.90;;;;;;5051414;28;20044;-77
2023/07/05 01:56:07;;;;;;;14.77;5.47;;;19.30;99.90;;;;;;5052004;28;20048;-76
2023/07/05 01:59:12;;;;;;;11.88;6.03;;;19.40;99.90;;;;;;5039191;28;20044;-77
2023/07/05 02:02:19;;;;;;;16.73;5.80;;;19.40;99.90;;;;;;5039270;28;20047;-76
2023/07/05 02:05:27;;;;;;;14.40;5.85;;;19.20;99.90;;;;;;5039083;28;20513;-75
2023/07/05 02:08:36;;;;;;;13.82;6.63;;;19.20;99.90;;;;;;5051309;28;20040;-76
2023/07/05 02:11:40;;;;;;;14.43;6.75;;;19.20;99.90;;;;;;5049935;28;20044;-77
2023/07/05 02:14:44;;;;;;;14.73;6.15;;;19.30;99.90;;;;;;5038799;28;20035;-74
2023/07/05 02:17:48;;;;;;;11.98;6.05;;;19.40;99.90;;;;;;5051051;28;20051;-76
2023/07/05 02:20:54;;;;;;;14.20;5.88;;;19.40;99.90;;;;;;5038653;28;20056;-77
2023/07/05 02:23:58;;;;;;;12.30;6.22;;;19.40;99.90;;;;;;5050937;28;20035;-76
2023/07/05 02:27:02;;;;;;;13.07;5.63;;;19.40;99.90;;;;;;5051025;28;20048;-77
2023/07/05 02:30:09;;;;;;;12.00;6.13;;;19.40;99.90;;;;;;5051068;28;20052;-77
2023/07/05 02:33:13;;;;;;;13.90;6.30;;;19.40;99.90;;;;;;5050412;28;20040;-75
2023/07/05 02:36:18;;;;;;;17.63;6.78;;;19.40;99.90;;;;;;5051081;28;20044;-77
2023/07/05 02:39:21;;;;;;;13.02;6.53;;;19.40;99.90;;;;;;5038413;28;20056;-77
2023/07/05 02:42:25;;;;;;;13.68;6.43;;;19.40;99.90;;;;;;5050320;28;20048;-77
2023/07/05 02:45:31;;;;;;;11.05;6.63;;;19.30;99.90;;;;;;5038274;28;20048;-77
2023/07/05 02:48:35;;;;;;;12.85;6.32;;;19.40;99.90;;;;;;5050434;28;20398;-77
2023/07/05 02:51:40;;;;;;;13.45;6.57;;;19.50;99.90;;;;;;5037532;28;20052;-77
2023/07/05 02:54:45;;;;;;;11.43;6.15;;;19.60;99.90;;;;;;5037684;28;20052;-77
2023/07/05 02:57:48;;;;;;;11.63;6.68;;;19.80;99.90;;;;;;5050713;28;20044;-77
2023/07/05 03:00:53;;;;;;;12.23;6.43;;;19.90;99.90;;;;;;5038131;28;20047;-77
2023/07/05 03:03:57;;;;;;;15.95;6.80;;;20.00;99.90;;;;;;5050231;28;20052;-77
2023/07/05 03:07:01;;;;;;;14.60;6.38;;;20.00;99.90;;;;;;5038198;28;20052;-77
2023/07/05 03:10:07;;;;;;;10.93;6.13;;;20.10;99.90;;;;;;5050047;28;20044;-76
2023/07/05 03:13:11;;;;;;;13.15;6.57;;;20.10;99.90;;;;;;5037156;28;20044;-76
2023/07/05 03:16:15;;;;;;;10.60;5.95;;;20.30;99.90;;;;;;5038084;28;20632;-77
2023/07/05 03:19:19;;;;;;;12.65;6.65;;;20.40;99.90;;;;;;5037948;28;20104;-76
2023/07/05 03:22:23;;;;;;;13.27;6.40;;;20.50;99.90;;;;;;5037032;28;20047;-77
2023/07/05 03:25:27;;;;;;;10.68;6.60;;;20.60;99.90;;;;;;5049552;28;20052;-77
2023/07/05 03:28:32;;;;;;;11.27;5.95;;;20.70;99.90;;;;;;5050292;28;20052;-77
2023/07/05 03:31:36;;;;;;;15.07;6.72;;;20.70;99.90;;;;;;5037630;28;20044;-76
2023/07/05 03:34:42;;;;;;;14.18;6.82;;;20.80;99.90;;;;;;5037798;28;20405;-77
2023/07/05 03:37:46;;;;;;;13.70;7.50;;;20.80;99.90;;;;;;5050270;28;20048;-76
2023/07/05 03:41:24;;;;;;;14.55;7.13;;;20.80;99.90;;;;;;5037475;28;20052;-76
2023/07/05 03:44:27;;;;;;;12.15;6.38;;;20.60;99.90;;;;;;5050032;28;20388;-76
2023/07/05 03:47:31;;;;;;;15.05;7.07;;;20.60;99.90;;;;;;5050124;28;20067;-77
2023/07/05 03:50:35;;;;;;;17.23;7.20;;;20.60;99.90;;;;;;5049746;28;20048;-77
2023/07/05 03:53:40;;;;;;;15.88;7.43;;;20.50;99.90;;;;;;5049520;28;20039;-76
2023/07/05 03:56:44;;;;;;;18.05;6.82;;;20.40;99.90;;;;;;5050184;28;20247;-77
2023/07/05 03:59:48;;;;;;;13.60;7.03;;;20.30;99.90;;;;;;5050054;28;20495;-77
2023/07/05 04:02:52;;;;;;;15.20;6.32;;;20.30;99.90;;;;;;5049468;28;20048;-76
2023/07/05 04:05:56;;;;;;;13.15;7.43;;;20.30;99.90;;;;;;5049956;28;20052;-76
2023/07/05 04:09:00;;;;;;;14.25;6.30;;;20.30;99.90;;;;;;5037450;28;20056;-77
2023/07/05 04:12:04;;;;;;;11.63;5.90;;;20.30;99.90;;;;;;5049501;28;20048;-77
2023/07/05 04:15:09;;;;;;;13.70;6.93;;;20.30;99.90;;;;;;5037495;28;20039;-77
2023/07/05 04:18:13;;;;;;;13.07;7.00;;;20.30;99.90;;;;;;5049929;28;20043;-77
2023/07/05 04:21:17;;;;;;;18.33;8.05;;;20.40;99.90;;;;;;5049510;28;20055;-77
2023/07/05 04:24:21;;;;;;;16.30;6.78;;;20.50;99.90;;;;;;5049727;28;20044;-77
2023/07/05 04:27:25;;;;;;;14.07;7.28;;;20.60;99.90;;;;;;5049672;28;20056;-77
2023/07/05 04:30:29;;;;;;;13.23;6.65;;;20.70;99.90;;;;;;5048821;28;20040;-77
2023/07/05 04:33:33;;;;;;;9.93;6.30;;;20.20;99.90;;;;;;5047900;28;20048;-77
2023/07/05 04:36:37;;;;;;;14.35;6.15;;;20.10;99.90;;;;;;5052772;28;20503;-77
2023/07/05 04:39:40;;;;;;;10.18;6.15;;;20.10;99.90;;;;;;5053292;28;20388;-76
2023/07/05 04:42:44;;;;;;;12.75;6.30;;;20.10;99.90;;;;;;5053178;28;20047;-76
2023/07/05 04:45:53;;;;;;;13.57;6.85;;;20.20;99.90;;;;;;5053197;28;20048;-77
2023/07/05 04:48:57;;;;;;;14.38;6.38;;;20.30;99.90;;;;;;5053150;28;20044;-76
2023/07/05 04:52:00;;;;;;;21.73;7.00;;;20.20;99.90;;;;;;5052863;28;20073;-76
2023/07/05 04:55:05;;;;;;;13.38;6.43;;;20.10;99.90;;;;;;5052074;28;20048;-76
2023/07/05 04:58:09;;;;;;;12.48;6.82;;;19.90;99.90;;;;;;5053252;28;20052;-76
2023/07/05 05:01:13;;;;;;;14.95;7.93;;;19.90;99.90;;;;;;5052481;28;20055;-77
2023/07/05 05:04:17;;;;;;;15.90;7.45;;;20.00;99.90;;;;;;5052558;28;20074;-77
2023/07/05 05:07:22;;;;;;;13.77;7.97;;;20.10;99.90;;;;;;5052082;28;20052;-76
2023/07/05 05:10:26;;;;;;;17.27;8.23;;;20.10;99.90;;;;;;5052398;28;20498;-77
2023/07/05 05:13:32;;;;;;;13.80;7.50;;;20.20;99.90;;;;;;5052306;28;20048;-76
2023/07/05 05:16:35;;;;;;;11.57;7.47;;;20.30;99.90;;;;;;5053155;28;20040;-76
2023/07/05 05:19:39;;;;;;;13.35;7.32;;;20.40;99.90;;;;;;5053024;28;20406;-76
2023/07/05 05:22:43;;;;;;;14.05;8.15;;;20.40;99.90;;;;;;5052167;28;20064;-76
2023/07/05 05:25:49;;;;;;;15.25;7.07;;;20.60;99.90;;;;;;5052021;28;20514;-76
2023/07/05 05:28:52;;;;;;;14.63;7.63;;;20.70;99.90;;;;;;5052147;28;20060;-76
2023/07/05 05:31:57;;;;;;;15.07;7.55;;;20.90;99.90;;;;;;5052337;28;20044;-76
2023/07/05 05:35:00;;;;;;;13.65;7.32;;;21.00;99.90;;;;;;5052705;28;20044;-76
2023/07/05 05:38:05;;;;;;;14.95;7.35;;;21.30;99.90;;;;;;5052329;28;20052;-76
2023/07/05 05:41:10;;;;;;;15.02;8.20;;;21.40;99.90;;;;;;5052202;28;20055;-76
2023/07/05 05:44:14;;;;;;;13.43;7.93;;;21.40;99.90;;;;;;5051989;28;20044;-76
2023/07/05 05:47:18;;;;;;;15.45;7.75;;;21.40;99.90;;;;;;5050816;28;20063;-76
2023/07/05 05:50:24;;;;;;;15.23;6.75;;;22.80;99.90;;;;;;5051818;28;20506;-76
2023/07/05 05:53:28;;;;;;;14.50;6.70;;;24.50;99.90;;;;;;5051780;28;20048;-76
2023/07/05 05:56:32;;;;;;;12.68;5.82;;;26.50;99.90;;;;;;5051706;28;20056;-76
2023/07/05 05:59:36;;;;;;;17.08;6.35;;;28.30;99.90;;;;;;5052411;28;20124;-77
2023/07/05 06:02:40;;;;;;;13.02;6.32;;;29.30;99.90;;;;;;5051310;28;20396;-76
2023/07/05 06:05:45;;;;;;;13.32;5.80;;;29.30;99.90;;;;;;5051555;28;20048;-76
2023/07/05 06:08:49;;;;;;;14.30;5.95;;;29.90;99.90;;;;;;5051598;28;20502;-77
2023/07/05 06:11:53;;;;;;;12.70;6.20;;;30.60;99.90;;;;;;5050940;28;20415;-77
2023/07/05 06:14:57;;;;;;;10.43;5.72;;;30.10;99.90;;;;;;5051994;28;20482;-76
2023/07/05 06:18:01;;;;;;;10.82;5.88;;;29.50;99.90;;;;;;5051251;28;20415;-76
2023/07/05 06:21:04;;;;;;;11.48;5.32;;;29.90;99.90;;;;;;5031696;28;20036;-76
2023/07/05 06:24:08;;;;;;;11.73;5.55;;;28.20;99.90;;;;;;5030767;28;20048;-77
2023/07/05 06:27:13;;;;;;;15.35;5.60;;;28.20;99.90;;;;;;5031211;28;20052;-76
2023/07/05 06:30:19;;;;;;;11.18;5.35;;;27.40;99.90;;;;;;5031018;28;20052;-75
2023/07/05 06:33:23;;;;;;;16.05;5.43;;;27.20;99.90;;;;;;5031660;28;20057;-77
2023/07/05 06:36:27;;;;;;;12.50;5.47;;;27.40;99.90;;;;;;5030117;28;20040;-75
2023/07/05 06:39:31;;;;;;;11.13;5.68;;;27.90;99.90;;;;;;5030943;28;20506;-76
2023/07/05 06:42:36;;;;;;;11.48;5.57;;;28.80;99.90;;;;;;5030321;28;20056;-75
2023/07/05 06:45:53;;;;;;;10.45;4.97;;;29.70;99.90;;;;;;5006966;28;20041;-75
2023/07/05 06:48:57;;;;;;;10.38;5.70;;;30.30;99.90;;;;;;5010954;28;20061;-76
2023/07/05 06:52:07;;;;;;;8.98;4.85;;;31.80;99.90;;;;;;5010752;28;20258;-76
2023/07/05 06:55:11;;;;;;;10.88;5.18;;;32.30;99.90;;;;;;5011659;28;20060;-77
2023/07/05 06:58:19;;;;;;;11.15;5.13;;;32.30;99.90;;;;;;5013889;28;20052;-77
2023/07/05 07:01:23;;;;;;;10.07;5.38;;;33.00;99.90;;;;;;5030730;28;20048;-76
2023/07/05 07:04:29;;;;;;;12.07;5.93;;;32.80;99.90;;;;;;5030406;28;20046;-76
2023/07/05 07:07:33;;;;;;;9.35;5.32;;;32.60;99.90;;;;;;5030095;28;20400;-76
2023/07/05 07:10:37;;;;;;;10.73;4.82;;;33.30;99.90;;;;;;5030457;28;20502;-76
2023/07/05 07:13:41;;;;;;;10.55;5.40;;;34.00;99.70;;;;;;5030110;28;20049;-77
2023/07/05 07:16:46;;;;;;;11.05;5.30;;;34.90;98.60;;;;;;5029711;28;20037;-76
2023/07/05 07:19:50;;;;;;;10.35;5.55;;;35.30;98.40;;;;;;5023105;28;20099;-76
2023/07/05 07:22:54;;;;;;;15.70;5.40;;;35.90;97.40;;;;;;5029462;28;20049;-79
2023/07/05 07:26:00;;;;;;;8.25;4.32;;;36.60;96.80;;;;;;5030495;28;20068;-77
2023/07/05 07:29:04;;;;;;;11.43;5.25;;;37.20;96.00;;;;;;5011001;28;20387;-77
2023/07/05 07:32:09;;;;;;;10.32;4.65;;;36.20;95.70;;;;;;5012037;28;20057;-76
2023/07/05 07:35:14;;;;;;;12.27;5.57;;;34.10;96.50;;;;;;5029884;28;20036;-78
2023/07/05 07:38:18;;;;;;;12.07;5.25;;;31.50;99.20;;;;;;5028692;28;20041;-79
2023/07/05 07:41:24;;;;;;;13.35;5.28;;;33.10;98.80;;;;;;5020995;28;20484;-79
2023/07/05 07:44:28;;;;;;;9.73;5.68;;;33.50;98.80;;;;;;5027238;28;20392;-80
2023/07/05 07:47:33;;;;;;;10.40;5.10;;;35.00;97.70;;;;;;5010031;28;20049;-77
2023/07/05 07:50:36;;;;;;;10.73;4.90;;;36.40;96.10;;;;;;5010012;28;20045;-77
2023/07/05 07:53:41;;;;;;;8.75;4.22;;;37.30;94.90;;;;;;5010098;28;20049;-74
2023/07/05 07:56:47;;;;;;;7.95;4.68;;;37.90;94.60;;;;;;5014278;28;20048;-77
2023/07/05 07:59:52;;;;;;;6.18;3.83;;;37.50;93.80;;;;;;5029325;28;20056;-78
2023/07/05 08:02:55;;;;;;;9.90;5.13;;;38.30;93.50;;;;;;5029496;28;20072;-77
2023/07/05 08:06:00;;;;;;;11.48;4.22;;;39.30;93.00;;;;;;5029887;28;20523;-77
2023/07/05 08:09:05;;;;;;;10.02;4.70;;;39.50;92.40;;;;;;5029177;28;20116;-76
2023/07/05 08:12:10;;;;;;;7.85;4.32;;;40.40;91.40;;;;;;5013236;28;20049;-78
2023/07/05 08:15:14;;;;;;;10.85;4.55;;;41.00;90.60;;;;;;5034151;28;20407;-78
2023/07/05 08:18:17;;;;;;;9.13;3.53;;;41.40;90.10;;;;;;5034012;28;20040;-78
2023/07/05 08:21:21;;;;;;;8.65;4.10;;;41.70;87.20;;;;;;5026607;28;20036;-75
2023/07/05 08:24:26;;;;;;;9.32;4.15;;;41.60;87.00;;;;;;5033204;28;20387;-75
2023/07/05 08:27:29;;;;;;;9.00;4.28;;;41.80;87.10;;;;;;5023662;28;20043;-78
2023/07/05 08:30:39;;;;;;;7.25;3.65;;;42.40;85.90;;;;;;5033802;28;20056;-77
2023/07/05 08:33:44;;;;;;;8.73;3.40;;;40.20;85.70;;;;;;5034045;28;20503;-78
2023/07/05 08:36:49;;;;;;;6.43;3.40;;;39.10;87.00;;;;;;5032109;28;20499;-77
2023/07/05 08:39:52;;;;;;;10.35;3.88;;;39.60;87.00;;;;;;5024738;28;20053;-76
2023/07/05 08:43:13;;;;;;;8.18;4.13;;;41.60;85.90;;;;;;5015363;28;20049;-75
2023/07/05 08:46:18;;;;;;;5.82;3.55;;;42.10;83.50;;;;;;5030179;28;20052;-79
2023/07/05 08:49:36;;;;;;;7.60;4.10;;;40.40;83.90;;;;;;5033044;28;20052;-74
2023/07/05 08:52:46;;;;;;;13.77;4.32;;;38.20;87.70;;;;;;5032760;28;20061;-72
2023/07/05 08:55:52;;;;;;;11.25;5.05;;;38.70;87.80;;;;;;5033921;28;20112;-74
2023/07/05 08:59:07;;;;;;;8.15;3.90;;;35.10;90.50;;;;;;5033756;28;20064;-75
2023/07/05 09:02:16;;;;;;;8.35;4.80;;;35.90;90.70;;;;;;5014553;28;20491;-73
2023/07/05 09:05:33;;;;;;;12.13;4.70;;;35.10;90.80;;;;;;5029412;28;20392;-72
2023/07/05 09:08:40;;;;;;;11.77;4.95;;;34.40;92.20;;;;;;5033735;28;20491;-74
2023/07/05 09:11:56;;;;;;;8.65;4.45;;;35.80;90.90;;;;;;5032846;28;20044;-77
2023/07/05 09:15:23;;;;;;;12.60;4.60;;;37.10;90.90;;;;;;5034233;28;20057;-75
2023/07/05 09:18:50;;;;;;;9.07;4.40;;;39.30;89.00;;;;;;5020417;28;20041;-73
2023/07/05 09:22:06;;;;;;;9.18;4.43;;;38.50;88.40;;;;;;5012950;28;20393;-73
2023/07/05 09:25:14;;;;;;;9.18;3.95;;;41.30;86.60;;;;;;5027224;28;20119;-76
2023/07/05 09:28:46;;;;;;;6.70;4.20;;;42.50;85.40;;;;;;5031425;28;20020;-73
2023/07/05 09:31:53;;;;;;;9.38;4.30;;;43.20;82.50;;;;;;5035229;28;20045;-78
2023/07/05 09:34:59;;;;;;;9.45;4.22;;;41.60;81.10;;;;;;5036555;28;20037;-76
2023/07/05 09:38:21;;;;;;;7.72;4.50;;;37.30;86.20;;;;;;5029813;28;20480;-75
2023/07/05 09:41:48;;;;;;;8.93;4.45;;;36.80;89.00;;;;;;5030781;28;20052;-75
2023/07/05 09:44:52;;;;;;;8.15;4.43;;;37.30;88.30;;;;;;5035894;28;20045;-76
2023/07/05 09:48:01;;;;;;;9.85;3.88;;;39.00;87.20;;;;;;5032480;28;20036;-77
2023/07/05 09:51:05;;;;;;;7.63;4.35;;;38.90;84.40;;;;;;5034633;28;20052;-78
2023/07/05 09:54:16;;;;;;;12.77;4.15;;;38.10;87.30;;;;;;5033495;28;20044;-74
2023/07/05 09:57:25;;;;;;;9.30;4.72;;;38.00;87.00;;;;;;5034859;28;20142;-77
2023/07/05 10:00:37;;;;;;;10.73;4.55;;;36.90;87.90;;;;;;5020271;28;20044;-77
2023/07/05 10:03:52;;;;;;;8.07;3.95;;;36.60;89.70;;;;;;5034019;28;20109;-76
2023/07/05 10:06:56;;;;;;;8.90;4.07;;;39.50;86.80;;;;;;5026897;28;20052;-75
2023/07/05 10:10:12;;;;;;;8.68;3.00;;;39.10;82.90;;;;;;5027473;28;20044;-76
2023/07/05 10:13:21;;;;;;;7.03;3.30;;;39.70;85.30;;;;;;5033187;28;20057;-74
2023/07/05 10:16:25;;;;;;;8.82;3.45;;;33.60;90.20;;;;;;5033217;28;20045;-75
2023/07/05 10:19:31;;;;;;;8.13;3.53;;;32.30;91.40;;;;;;5032594;28;20044;-75
2023/07/05 10:22:35;;;;;;;9.60;4.43;;;32.80;91.50;;;;;;5034153;28;20045;-75
2023/07/05 10:25:41;;;;;;;7.22;3.60;;;36.20;90.90;;;;;;5032077;28;20044;-77
2023/07/05 10:28:46;;;;;;;6.28;3.60;;;35.80;87.80;;;;;;5033953;28;20503;-76
2023/07/05 10:31:56;;;;;;;6.57;3.40;;;36.20;85.90;;;;;;5015873;28;20041;-75
2023/07/05 10:35:00;;;;;;;7.47;3.60;;;35.50;89.40;;;;;;5024206;28;20491;-76
2023/07/05 10:38:19;;;;;;;8.93;3.42;;;34.10;91.10;;;;;;5033057;28;20048;-73
2023/07/05 10:41:31;;;;;;;6.00;3.33;;;32.80;92.00;;;;;;5029715;28;20798;-74
2023/07/05 10:44:36;;;;;;;8.18;3.63;;;32.50;92.50;;;;;;5018737;28;20032;-73
2023/07/05 10:47:42;;;;;;;9.45;4.47;;;32.10;93.20;;;;;;5032418;28;20061;-75
2023/07/05 10:50:46;;;;;;;8.85;3.80;;;30.40;94.80;;;;;;5031564;28;20052;-75
2023/07/05 10:54:09;;;;;;;7.72;3.58;;;31.80;93.40;;;;;;5031844;28;20036;-74
2023/07/05 10:57:34;;;;;;;5.75;3.20;;;34.80;92.00;;;;;;5033565;28;20053;-75
2023/07/05 11:00:44;;;;;;;9.30;3.25;;;38.20;89.00;;;;;;5017377;28;20049;-72
2023/07/05 11:04:05;;;;;;;7.43;2.70;;;40.30;86.70;;;;;;5031266;28;20049;-74
2023/07/05 11:07:12;;;;;;;5.43;2.53;;;40.20;85.60;;;;;;5031877;28;20032;-72
2023/07/05 11:10:16;;;;;;;7.35;2.90;;;41.70;84.70;;;;;;5015083;28;20040;-73
2023/07/05 11:13:20;;;;;;;4.55;2.88;;;41.10;84.00;;;;;;5031812;28;20039;-74
2023/07/05 11:16:25;;;;;;;4.63;2.90;;;37.90;84.50;;;;;;5019181;28;20040;-73
2023/07/05 11:19:32;;;;;;;5.72;2.55;;;35.10;88.00;;;;;;5021590;28;20125;-73
2023/07/05 11:22:38;;;;;;;5.43;2.70;;;35.20;89.00;;;;;;5023113;28;20059;-73
2023/07/05 11:25:55;;;;;;;7.03;2.78;;;35.50;88.00;;;;;;5028795;28;20057;-74
2023/07/05 11:29:00;;;;;;;7.88;2.47;;;36.30;87.60;;;;;;5028448;28;20081;-72
2023/07/05 11:32:08;;;;;;;4.93;2.92;;;37.00;85.40;;;;;;5027270;28;20511;-75
2023/07/05 11:35:43;;;;;;;4.32;2.35;;;38.90;84.50;;;;;;5032226;28;20036;-73
2023/07/05 11:38:47;;;;;;;5.03;2.70;;;40.60;86.00;;;;;;5038122;28;20048;-74
2023/07/05 11:41:51;;;;;;;7.13;2.85;;;38.20;83.40;;;;;;5031042;28;20052;-73
2023/07/05 11:45:04;;;;;;;3.90;2.30;;;38.90;84.20;;;;;;5027727;28;20050;-73
2023/07/05 11:48:38;;;;;;;8.85;2.75;;;39.20;83.40;;;;;;5029120;28;20040;-72
2023/07/05 11:51:42;;;;;;;4.60;2.70;;;39.60;82.80;;;;;;5038406;28;20666;-74
2023/07/05 11:55:04;;;;;;;8.73;2.88;;;39.70;83.50;;;;;;5036919;28;20391;-74
2023/07/05 11:58:26;;;;;;;4.65;2.83;;;39.30;83.00;;;;;;5028538;28;20048;-74
2023/07/05 12:01:35;;;;;;;7.05;3.03;;;36.00;84.40;;;;;;5036452;28;20048;-72
2023/07/05 12:04:40;;;;;;;4.65;2.92;;;37.10;86.80;;;;;;5028739;28;20487;-72
2023/07/05 12:08:06;;;;;;;5.72;2.53;;;37.90;84.30;;;;;;5030257;28;20052;-74
2023/07/05 12:11:12;;;;;;;6.05;3.30;;;37.70;84.20;;;;;;5031410;28;20048;-72
2023/07/05 12:14:17;;;;;;;8.98;3.00;;;38.10;85.30;;;;;;5033793;28;20052;-72
2023/07/05 12:17:29;;;;;;;7.90;2.60;;;38.30;85.10;;;;;;5044784;28;20049;-73
2023/07/05 12:20:40;;;;;;;5.43;2.78;;;38.40;84.50;;;;;;5030927;28;20054;-73
2023/07/05 12:23:46;;;;;;;5.65;2.75;;;38.60;83.50;;;;;;5029817;28;20116;-72
2023/07/05 12:26:51;;;;;;;6.03;3.38;;;38.00;84.50;;;;;;5032802;28;20036;-75
2023/07/05 12:29:58;;;;;;;6.90;3.45;;;35.60;85.90;;;;;;5022499;28;20052;-73
2023/07/05 12:33:54;;;;;;;8.20;2.83;;;32.90;88.20;;;;;;5030249;28;20070;-73
2023/07/05 12:36:58;;;;;;;7.50;3.70;;;32.40;90.80;;;;;;5031268;28;20033;-74
2023/07/05 12:40:35;;;;;;;5.60;2.97;;;32.10;90.40;;;;;;5034851;28;20056;-79
2023/07/05 12:43:39;;;;;;;6.15;2.90;;;31.10;92.20;;;;;;5031700;28;20506;-73
2023/07/05 12:46:43;;;;;;;7.20;2.95;;;33.10;92.00;;;;;;5030339;28;20399;-74
2023/07/05 12:49:48;;;;;;;11.07;3.50;;;34.70;90.60;;;;;;5009735;28;20064;-72
2023/07/05 12:53:04;;;;;;;11.45;3.05;;;34.20;90.60;;;;;;5031713;28;20040;-73
2023/07/05 12:56:12;;;;;;;7.93;3.83;;;34.00;90.90;;;;;;5031923;28;20116;-75
2023/07/05 12:59:34;;;;;;;11.27;3.58;;;34.00;89.50;;;;;;5031501;28;20045;-73
2023/07/05 13:02:44;;;;;;;6.95;3.20;;;34.60;91.10;;;;;;5028596;28;20057;-74
2023/07/05 13:05:49;;;;;;;7.30;3.05;;;35.00;89.60;;;;;;5031840;28;20215;-74
2023/07/05 13:08:55;;;;;;;6.15;3.03;;;35.50;90.90;;;;;;5031706;28;20124;-73
2023/07/05 13:12:03;;;;;;;8.43;3.00;;;36.20;90.70;;;;;;5033717;28;20053;-74
2023/07/05 13:15:08;;;;;;;5.50;3.13;;;36.20;90.90;;;;;;5029923;28;20045;-75
2023/07/05 13:18:27;;;;;;;10.15;2.85;;;36.30;90.20;;;;;;5035317;28;20048;-72
2023/07/05 13:21:43;;;;;;;5.30;2.90;;;36.30;90.20;;;;;;5029331;28;20044;-73
2023/07/05 13:24:49;;;;;;;7.90;3.20;;;35.70;90.00;;;;;;5032210;28;20091;-74
2023/07/05 13:27:55;;;;;;;12.20;3.67;;;35.90;89.40;;;;;;5034838;28;20052;-74
2023/07/05 13:31:01;;;;;;;6.85;3.45;;;36.20;90.40;;;;;;5030347;28;20052;-74
2023/07/05 13:34:06;;;;;;;7.47;3.10;;;35.10;90.10;;;;;;5019457;28;20141;-73
2023/07/05 13:37:14;;;;;;;9.05;3.45;;;34.80;89.90;;;;;;5029016;28;20041;-74
2023/07/05 13:40:27;;;;;;;8.30;3.40;;;33.40;92.30;;;;;;5036671;28;20407;-72
2023/07/05 13:43:33;;;;;;;6.93;3.17;;;33.80;91.40;;;;;;5022432;28;20056;-74
2023/07/05 13:46:37;;;;;;;7.43;3.58;;;34.40;92.10;;;;;;5030308;28;20040;-73
2023/07/05 13:50:08;;;;;;;7.55;3.38;;;34.70;91.30;;;;;;5021199;28;20048;-73
2023/07/05 13:53:18;;;;;;;5.97;3.67;;;35.20;91.50;;;;;;5036196;28;20044;-73
2023/07/05 13:56:23;;;;;;;10.02;3.58;;;35.10;91.70;;;;;;5030663;28;20562;-78
2023/07/05 13:59:28;;;;;;;5.90;3.05;;;34.80;91.90;;;;;;5028055;28;20048;-74
2023/07/05 14:02:36;;;;;;;6.13;3.40;;;35.00;91.20;;;;;;5027916;28;20044;-76
2023/07/05 14:05:40;;;;;;;9.10;3.30;;;35.40;91.80;;;;;;5033246;28;20049;-76
2023/07/05 14:08:44;;;;;;;7.63;3.50;;;35.60;91.20;;;;;;5022598;28;20040;-75
2023/07/05 14:11:48;;;;;;;6.38;3.53;;;34.50;91.10;;;;;;5029692;28;20033;-76
2023/07/05 14:14:52;;;;;;;6.65;3.20;;;34.50;92.20;;;;;;5032619;28;20040;-76
2023/07/05 14:17:56;;;;;;;6.82;2.90;;;34.40;91.10;;;;;;5036541;28;20052;-77
2023/07/05 14:21:00;;;;;;;7.53;3.20;;;33.60;91.70;;;;;;5034584;28;20052;-76
2023/07/05 14:24:09;;;;;;;9.75;3.50;;;33.20;91.50;;;;;;5033976;28;20408;-74
2023/07/05 14:27:16;;;;;;;9.43;3.70;;;33.40;92.50;;;;;;5030159;28;20040;-76
2023/07/05 14:30:20;;;;;;;8.90;3.17;;;33.30;91.50;;;;;;5046127;28;20048;-75
2023/07/05 14:33:24;;;;;;;11.00;3.58;;;32.60;92.90;;;;;;5031611;28;20048;-76
2023/07/05 14:36:27;;;;;;;8.32;3.65;;;31.80;92.40;;;;;;5030744;28;20041;-76
2023/07/05 14:39:32;;;;;;;5.82;3.13;;;31.10;93.20;;;;;;5027178;28;20032;-78
2023/07/05 14:42:36;;;;;;;6.13;2.88;;;31.30;93.40;;;;;;5023393;28;20052;-76
2023/07/05 14:45:42;;;;;;;6.05;3.35;;;31.70;92.50;;;;;;5015494;28;20056;-74
2023/07/05 14:48:48;;;;;;;15.82;3.60;;;30.70;92.80;;;;;;5032351;28;20048;-74
2023/07/05 14:51:53;;;;;;;5.07;2.85;;;31.30;93.70;;;;;;5037614;28;20060;-75
2023/07/05 14:54:57;;;;;;;8.35;3.30;;;31.80;93.60;;;;;;5024297;28;20036;-74
2023/07/05 14:58:02;;;;;;;9.20;3.20;;;32.10;93.40;;;;;;5026270;28;20036;-73
2023/07/05 15:01:11;;;;;;;6.60;3.40;;;31.40;92.10;;;;;;5038883;28;20047;-74
2023/07/05 15:04:17;;;;;;;7.50;3.03;;;31.50;93.10;;;;;;5032094;28;20059;-73
2023/07/05 15:07:21;;;;;;;6.13;2.85;;;31.30;93.80;;;;;;5024072;28;20048;-77
2023/07/05 15:10:25;;;;;;;5.15;2.78;;;31.50;92.70;;;;;;5015393;28;20056;-74
2023/07/05 15:13:35;;;;;;;4.90;2.90;;;32.00;92.40;;;;;;5023981;28;20045;-74
2023/07/05 15:16:40;;;;;;;8.45;3.40;;;31.90;92.80;;;;;;5034348;28;20036;-75
2023/07/05 15:19:44;;;;;;;6.57;3.28;;;31.60;93.40;;;;;;5036524;28;20041;-74
2023/07/05 15:22:48;;;;;;;8.15;3.20;;;31.60;93.40;;;;;;5018410;28;20065;-74
2023/07/05 15:25:56;;;;;;;5.25;2.85;;;31.70;92.90;;;;;;5031208;28;20048;-75
2023/07/05 15:29:00;;;;;;;8.63;3.10;;;31.60;93.50;;;;;;5031482;28;20052;-73
2023/07/05 15:32:04;;;;;;;7.47;3.20;;;31.40;92.70;;;;;;5031799;28;20056;-76
2023/07/05 15:35:20;;;;;;;11.75;3.45;;;31.10;92.80;;;;;;5031495;28;20048;-73
2023/07/05 15:38:24;;;;;;;4.00;2.85;;;31.20;92.60;;;;;;5031897;28;20392;-75
2023/07/05 15:41:28;;;;;;;7.95;3.20;;;31.10;93.80;;;;;;5031317;28;20400;-75
2023/07/05 15:44:32;;;;;;;5.43;2.70;;;31.20;93.00;;;;;;5031235;28;20036;-73
2023/07/05 15:47:36;;;;;;;7.07;3.17;;;30.90;93.30;;;;;;5031485;28;20045;-72
2023/07/05 15:50:40;;;;;;;5.88;2.83;;;31.10;92.80;;;;;;5031052;28;20043;-75
2023/07/05 15:53:44;;;;;;;5.88;3.00;;;31.20;92.50;;;;;;5031416;28;20048;-77
2023/07/05 15:56:48;;;;;;;4.00;3.25;;;29.80;93.60;;;;;;5030949;28;20052;-73
2023/07/05 16:00:03;;;;;;;5.68;3.10;;;29.50;94.90;;;;;;5031794;28;20148;-76
2023/07/05 16:03:10;;;;;;;6.40;3.25;;;29.00;94.20;;;;;;5031481;28;20036;-74
2023/07/05 16:06:15;;;;;;;6.20;3.25;;;28.10;93.40;;;;;;5031961;28;20045;-75
2023/07/05 16:09:19;;;;;;;6.53;3.30;;;28.20;94.70;;;;;;5031582;28;20044;-76